Airport View

Enter AWOS ICAO identifier for current METAR.

ex. KFNL

KTCM 261158Z AUTO 15003KT 10SM OVC030 11/11 A2992 RMK AO2 SLP135 70001 T01140114 10135 20089 50000 $

26 Jun 2019 12:15

Other Area AWOS: KGRF - KPLU - KTIW - KSEA

TAF KTCM 260500Z 2605/2711 VRB06KT 9999 SCT030 BKN100 QNH2990INS BECMG 2612/2613 VRB06KT 9999 BKN015 QNH2988INS BECMG 2615/2616 VRB06KT 9999 SCT050 BKN100 QNH2986INS BECMG 2622/2623 VRB06KT 9999 VCSH BKN050 OVC100 QNH2970INS BECMG 2705/2706 VRB06KT 9999 NSW BKN020 QNH2995INS TX22/2621Z TN10/2612Z